createdAt,value
2019-04-29T00:01:19.710Z,17.20
2019-04-29T00:03:47.847Z,19.00
2019-04-29T00:06:16.023Z,22.55
2019-04-29T00:08:45.632Z,22.55
2019-04-29T00:11:13.722Z,19.03
2019-04-29T00:13:44.019Z,19.20
2019-04-29T00:16:18.374Z,20.50
2019-04-29T00:19:20.817Z,18.62
2019-04-29T00:21:49.340Z,18.67
2019-04-29T00:24:17.452Z,21.65
2019-04-29T00:26:45.511Z,18.50
2019-04-29T00:29:13.628Z,16.75
2019-04-29T00:31:41.756Z,17.65
2019-04-29T00:34:10.063Z,19.42
2019-04-29T00:36:48.069Z,17.00
2019-04-29T00:39:41.145Z,17.07
2019-04-29T00:42:19.915Z,16.20
2019-04-29T00:44:48.035Z,17.10
2019-04-29T00:47:16.125Z,17.13
2019-04-29T00:49:44.217Z,17.37
2019-04-29T00:52:12.327Z,17.67
2019-04-29T00:55:05.540Z,15.13
2019-04-29T00:57:33.656Z,16.07
2019-04-29T01:00:01.732Z,15.33
2019-04-29T01:02:30.305Z,15.03
2019-04-29T01:04:58.423Z,14.80
2019-04-29T01:07:26.492Z,14.97
2019-04-29T01:09:54.729Z,18.20
2019-04-29T01:12:22.848Z,18.20
2019-04-29T01:14:51.032Z,17.50
2019-04-29T01:17:19.204Z,16.50
2019-04-29T01:19:47.311Z,17.30
2019-04-29T01:22:15.550Z,22.05
2019-04-29T01:24:43.616Z,19.35
2019-04-29T01:27:22.348Z,20.32
2019-04-29T01:29:50.670Z,20.00
2019-04-29T01:32:18.746Z,18.30
2019-04-29T01:34:52.145Z,17.07
2019-04-29T01:37:20.207Z,16.80
2019-04-29T01:39:58.612Z,17.60
2019-04-29T01:42:30.132Z,17.50
2019-04-29T01:44:58.239Z,15.73
2019-04-29T01:47:26.497Z,15.98
2019-04-29T01:49:54.547Z,17.73
2019-04-29T01:52:22.652Z,17.20
2019-04-29T01:54:50.759Z,16.82
2019-04-29T01:57:18.871Z,15.80
2019-04-29T01:59:46.985Z,16.50
2019-04-29T02:02:15.051Z,16.37
2019-04-29T02:04:43.179Z,16.30
2019-04-29T02:07:11.318Z,15.70
2019-04-29T02:09:48.691Z,16.65
2019-04-29T02:12:16.837Z,18.30
2019-04-29T02:14:44.985Z,18.73
2019-04-29T02:17:13.292Z,20.45
2019-04-29T02:19:41.376Z,16.87
2019-04-29T02:22:16.977Z,16.30
2019-04-29T02:24:49.774Z,16.07
2019-04-29T02:27:17.900Z,20.80
2019-04-29T02:29:46.028Z,18.25
2019-04-29T02:32:14.230Z,19.07
2019-04-29T02:34:42.359Z,17.12
2019-04-29T02:37:12.004Z,17.57
2019-04-29T02:39:59.159Z,20.33
2019-04-29T02:42:42.805Z,17.02
2019-04-29T02:45:14.538Z,19.40
2019-04-29T02:47:42.669Z,19.42
2019-04-29T02:50:10.773Z,18.85
2019-04-29T02:52:38.836Z,20.00
2019-04-29T02:55:08.445Z,21.03
2019-04-29T02:57:51.921Z,20.55
2019-04-29T03:00:34.761Z,21.62
2019-04-29T03:03:17.813Z,24.18
2019-04-29T03:05:50.078Z,23.77
2019-04-29T03:08:18.190Z,24.23
2019-04-29T03:10:46.609Z,23.05
2019-04-29T03:13:14.698Z,23.77
2019-04-29T03:15:42.900Z,32.10
2019-04-29T03:18:11.026Z,36.45
2019-04-29T03:20:48.691Z,54.85
2019-04-29T03:23:18.509Z,48.02
2019-04-29T03:25:46.575Z,38.10
2019-04-29T03:28:14.668Z,33.63
2019-04-29T03:30:42.733Z,23.55
2019-04-29T03:33:10.838Z,26.27
2019-04-29T03:35:39.025Z,62.25
2019-04-29T03:38:07.364Z,24.07
2019-04-29T03:40:35.650Z,28.00
2019-04-29T03:43:04.138Z,38.90
2019-04-29T03:45:32.320Z,56.77
2019-04-29T03:48:00.510Z,45.25
2019-04-29T03:50:28.620Z,74.75
2019-04-29T03:52:56.692Z,21.55
2019-04-29T03:55:39.190Z,18.50
2019-04-29T03:57:54.547Z,18.70
2019-04-29T04:00:22.623Z,50.43
2019-04-29T04:03:06.161Z,37.63
2019-04-29T04:05:48.221Z,24.90
2019-04-29T04:08:35.483Z,23.50
2019-04-29T04:11:03.618Z,20.45
2019-04-29T04:13:32.920Z,21.93
2019-04-29T04:16:02.544Z,24.90
2019-04-29T04:18:32.127Z,32.10
2019-04-29T04:21:00.250Z,33.38
2019-04-29T04:23:28.311Z,31.20
2019-04-29T04:25:56.963Z,34.03
2019-04-29T04:28:25.157Z,35.23
2019-04-29T04:30:53.234Z,34.85
2019-04-29T04:33:21.373Z,31.12
2019-04-29T04:35:49.465Z,31.87
2019-04-29T04:38:17.540Z,29.60
2019-04-29T04:40:55.781Z,25.05
2019-04-29T04:43:23.897Z,21.30
2019-04-29T04:45:52.110Z,24.17
2019-04-29T04:48:20.212Z,21.30
2019-04-29T04:50:48.332Z,20.48
2019-04-29T04:53:16.403Z,20.88
2019-04-29T04:55:45.882Z,19.70
2019-04-29T04:58:14.016Z,18.85
2019-04-29T05:00:42.155Z,18.60
2019-04-29T05:03:10.221Z,17.37
2019-04-29T05:05:38.699Z,17.95
2019-04-29T05:08:07.070Z,18.27
2019-04-29T05:10:35.449Z,17.45
2019-04-29T05:13:03.537Z,19.12
2019-04-29T05:15:31.634Z,19.40
2019-04-29T05:17:59.741Z,18.15
2019-04-29T05:20:27.837Z,19.42
2019-04-29T05:22:59.789Z,19.50
2019-04-29T05:25:29.312Z,19.65
2019-04-29T05:27:57.704Z,20.82
2019-04-29T05:30:25.821Z,21.70
2019-04-29T05:32:53.989Z,23.63
2019-04-29T05:35:24.911Z,24.27
2019-04-29T05:37:58.941Z,25.37
2019-04-29T05:40:44.727Z,25.32
2019-04-29T05:43:14.884Z,23.87
2019-04-29T05:46:07.402Z,23.67
2019-04-29T05:48:34.697Z,25.70
2019-04-29T05:51:09.208Z,23.55
2019-04-29T05:53:47.822Z,22.55
2019-04-29T05:56:13.572Z,22.60
2019-04-29T05:58:41.897Z,20.40
2019-04-29T06:01:14.781Z,20.82
2019-04-29T06:03:44.504Z,19.45
2019-04-29T06:06:12.685Z,18.80
2019-04-29T06:08:40.800Z,18.17
2019-04-29T06:11:08.943Z,18.10
2019-04-29T06:13:37.052Z,21.50
2019-04-29T06:16:05.211Z,24.80
2019-04-29T06:18:33.238Z,23.67
2019-04-29T06:21:09.015Z,23.17
2019-04-29T06:23:31.079Z,22.77
2019-04-29T06:25:59.162Z,20.27
2019-04-29T06:28:28.219Z,22.13
2019-04-29T06:30:56.349Z,23.53
2019-04-29T06:33:28.886Z,22.10
2019-04-29T06:35:56.944Z,20.70
2019-04-29T06:38:24.186Z,20.88
2019-04-29T06:40:52.262Z,19.73
2019-04-29T06:43:20.373Z,20.72
2019-04-29T06:45:48.531Z,20.27
2019-04-29T06:48:16.640Z,19.95
2019-04-29T06:50:45.002Z,21.82
2019-04-29T06:53:16.515Z,21.65
2019-04-29T06:55:42.951Z,24.77
2019-04-29T06:58:11.040Z,23.63
2019-04-29T07:00:39.277Z,22.32
2019-04-29T07:03:07.344Z,23.00
2019-04-29T07:05:35.436Z,20.50
2019-04-29T07:08:03.562Z,17.95
2019-04-29T07:10:32.315Z,17.92
2019-04-29T07:13:00.449Z,18.57
2019-04-29T07:15:28.533Z,15.60
2019-04-29T07:17:56.629Z,13.60
2019-04-29T07:20:24.855Z,13.85
2019-04-29T07:22:56.496Z,14.47
2019-04-29T07:25:24.692Z,12.75
2019-04-29T07:27:52.694Z,12.58
2019-04-29T07:30:20.885Z,10.75
2019-04-29T07:32:49.028Z,10.13
2019-04-29T07:35:17.263Z,9.58
2019-04-29T07:37:45.820Z,9.40
2019-04-29T07:40:14.263Z,9.48
2019-04-29T07:42:42.759Z,9.65
2019-04-29T07:45:43.381Z,9.28
2019-04-29T07:48:06.408Z,9.30
2019-04-29T07:50:32.973Z,10.27
2019-04-29T07:53:01.154Z,10.70
2019-04-29T07:55:30.946Z,9.38
2019-04-29T07:57:59.033Z,10.85
2019-04-29T08:00:33.675Z,11.03
2019-04-29T08:03:02.295Z,11.80
2019-04-29T08:05:30.671Z,13.55
2019-04-29T08:07:59.533Z,13.62
2019-04-29T08:10:28.610Z,12.73
2019-04-29T08:12:58.570Z,10.40
2019-04-29T08:15:26.706Z,10.23
2019-04-29T08:18:05.926Z,32.58
2019-04-29T08:20:24.876Z,9.93
2019-04-29T08:22:52.993Z,10.40
2019-04-29T08:25:21.782Z,14.68
2019-04-29T08:27:50.902Z,10.78
2019-04-29T08:31:16.635Z,15.10
2019-04-29T08:33:46.735Z,11.97
2019-04-29T08:36:16.293Z,11.95
2019-04-29T08:38:45.594Z,11.70
2019-04-29T08:41:14.867Z,13.28
2019-04-29T08:44:15.980Z,12.03
2019-04-29T08:46:44.474Z,12.13
2019-04-29T08:49:14.563Z,11.20
2019-04-29T08:51:42.333Z,10.90
2019-04-29T08:54:11.526Z,11.12
2019-04-29T08:56:55.146Z,9.67
2019-04-29T08:59:11.572Z,11.43
2019-04-29T09:01:40.777Z,10.28
2019-04-29T09:04:10.054Z,9.63
2019-04-29T09:06:39.204Z,8.63
2019-04-29T09:09:10.590Z,7.45
2019-04-29T09:11:43.727Z,5.03
2019-04-29T09:14:13.034Z,4.60
2019-04-29T09:16:41.750Z,4.65
2019-04-29T09:19:10.942Z,4.50
2019-04-29T09:21:43.241Z,4.70
2019-04-29T09:24:12.414Z,4.65
2019-04-29T09:26:47.031Z,6.42
2019-04-29T09:29:36.355Z,5.05
2019-04-29T09:32:06.601Z,5.57
2019-04-29T09:34:35.758Z,5.58
2019-04-29T09:37:04.940Z,5.50
2019-04-29T09:39:43.008Z,5.25
2019-04-29T09:42:35.054Z,5.00
2019-04-29T09:45:26.397Z,5.33
2019-04-29T09:47:55.617Z,5.62
2019-04-29T09:50:24.772Z,5.10
2019-04-29T09:52:53.964Z,4.72
2019-04-29T09:55:23.991Z,5.23
2019-04-29T09:57:53.151Z,5.20
2019-04-29T10:00:40.824Z,5.25
2019-04-29T10:03:18.102Z,4.62
2019-04-29T10:05:52.810Z,5.10
2019-04-29T10:08:22.120Z,5.37
2019-04-29T10:10:51.279Z,4.90
2019-04-29T10:13:20.595Z,4.80
2019-04-29T10:16:08.783Z,4.60
2019-04-29T10:18:52.267Z,4.87
2019-04-29T10:21:23.298Z,5.33
2019-04-29T10:23:52.498Z,5.53
2019-04-29T10:26:21.744Z,4.40
2019-04-29T10:28:59.789Z,5.15
2019-04-29T10:31:29.016Z,5.67
2019-04-29T10:33:58.376Z,5.40
2019-04-29T10:36:27.539Z,16.07
2019-04-29T10:38:59.473Z,6.42
2019-04-29T10:41:36.002Z,5.62
2019-04-29T10:44:22.955Z,6.33
2019-04-29T10:47:02.700Z,6.43
2019-04-29T10:49:41.870Z,4.60
2019-04-29T10:52:11.250Z,6.75
2019-04-29T10:54:40.655Z,4.72
2019-04-29T10:57:10.444Z,4.97
2019-04-29T10:59:45.001Z,5.05
2019-04-29T11:02:31.046Z,4.83
2019-04-29T11:05:17.957Z,4.80
2019-04-29T11:07:47.755Z,5.35
2019-04-29T11:10:25.733Z,4.95
2019-04-29T11:12:55.207Z,4.90
2019-04-29T11:15:32.264Z,4.62
2019-04-29T11:18:03.066Z,5.20
2019-04-29T11:20:30.312Z,6.80
2019-04-29T11:23:09.297Z,5.10
2019-04-29T11:25:51.378Z,5.72
2019-04-29T11:28:20.933Z,6.50
2019-04-29T11:30:50.498Z,5.20
2019-04-29T11:33:26.052Z,6.03
2019-04-29T11:36:03.962Z,5.65
2019-04-29T11:38:32.960Z,6.03
2019-04-29T11:41:03.474Z,5.90
2019-04-29T11:43:32.882Z,6.25
2019-04-29T11:46:02.124Z,6.12
2019-04-29T11:48:31.335Z,6.95
2019-04-29T11:51:07.369Z,6.30
2019-04-29T11:53:37.633Z,7.15
2019-04-29T11:56:06.885Z,7.45
2019-04-29T11:58:49.167Z,7.50
2019-04-29T12:01:50.914Z,6.83
2019-04-29T12:04:28.734Z,7.53
2019-04-29T12:06:58.029Z,7.60
2019-04-29T12:09:30.491Z,8.43
2019-04-29T12:11:55.998Z,8.45
2019-04-29T12:14:38.015Z,7.87
2019-04-29T12:17:13.692Z,7.67
2019-04-29T12:19:42.072Z,8.95
2019-04-29T12:22:15.129Z,8.83
2019-04-29T12:24:40.000Z,8.45
2019-04-29T12:27:08.316Z,9.45
2019-04-29T12:29:36.649Z,8.58
2019-04-29T12:32:20.759Z,8.80
2019-04-29T12:35:08.114Z,9.10
2019-04-29T12:37:53.237Z,8.88
2019-04-29T12:40:40.415Z,9.18
2019-04-29T12:43:26.240Z,9.20
2019-04-29T12:46:10.244Z,9.20
2019-04-29T12:48:38.942Z,10.30
2019-04-29T12:51:07.040Z,9.95
2019-04-29T12:53:35.161Z,10.90
2019-04-29T12:56:07.122Z,11.45
2019-04-29T12:58:33.029Z,11.15
2019-04-29T13:01:10.694Z,11.75
2019-04-29T13:03:49.108Z,11.50
2019-04-29T13:06:38.293Z,11.13
2019-04-29T13:08:57.013Z,10.93
2019-04-29T13:11:37.457Z,11.53
2019-04-29T13:13:59.721Z,11.70
2019-04-29T13:16:43.633Z,11.67
2019-04-29T13:19:25.065Z,11.20
2019-04-29T13:21:59.570Z,10.78
2019-04-29T13:24:27.912Z,11.53
2019-04-29T13:26:56.234Z,12.47
2019-04-29T13:29:27.364Z,11.97
2019-04-29T13:31:54.099Z,12.55
2019-04-29T13:34:30.884Z,14.18
2019-04-29T13:37:07.473Z,14.40
2019-04-29T13:39:39.029Z,14.68
2019-04-29T13:42:02.919Z,14.65
2019-04-29T13:44:28.981Z,15.43
2019-04-29T13:47:34.155Z,15.40
2019-04-29T13:50:17.786Z,15.35
2019-04-29T13:52:37.290Z,15.80
2019-04-29T13:55:17.175Z,14.85
2019-04-29T13:57:35.410Z,14.43
2019-04-29T14:00:28.354Z,14.95
2019-04-29T14:03:11.595Z,15.45
2019-04-29T14:05:41.468Z,15.72
2019-04-29T14:08:08.819Z,15.25
2019-04-29T14:10:36.967Z,16.17
2019-04-29T14:13:11.918Z,16.10
2019-04-29T14:15:38.323Z,16.62
2019-04-29T14:18:06.931Z,16.32
2019-04-29T14:20:34.366Z,15.30
2019-04-29T14:23:02.588Z,14.90
2019-04-29T14:25:30.806Z,14.63
2019-04-29T14:27:58.987Z,14.90
2019-04-29T14:30:38.493Z,15.03
2019-04-29T14:33:01.798Z,15.90
2019-04-29T14:35:37.398Z,14.58
2019-04-29T14:38:06.289Z,15.28
2019-04-29T14:40:34.615Z,16.07
2019-04-29T14:43:28.796Z,16.45
2019-04-29T14:46:15.978Z,17.17
2019-04-29T14:49:04.534Z,17.92
2019-04-29T14:51:36.724Z,18.67
2019-04-29T14:54:05.734Z,18.80
2019-04-29T14:56:31.850Z,19.30
2019-04-29T14:59:06.980Z,20.75
2019-04-29T15:01:40.332Z,19.73
2019-04-29T15:04:17.929Z,21.12
2019-04-29T15:06:40.016Z,21.12
2019-04-29T15:09:16.982Z,21.27
2019-04-29T15:11:52.077Z,20.82
2019-04-29T15:14:38.926Z,21.07
2019-04-29T15:17:18.368Z,21.73
2019-04-29T15:19:56.427Z,20.55
2019-04-29T15:22:27.414Z,20.82
2019-04-29T15:24:55.908Z,20.72
2019-04-29T15:27:24.017Z,20.50
2019-04-29T15:29:52.105Z,21.57
2019-04-29T15:32:22.100Z,21.40
2019-04-29T15:34:50.060Z,22.27
2019-04-29T15:37:18.163Z,21.93
2019-04-29T15:39:47.865Z,22.60
2019-04-29T15:42:15.964Z,22.50
2019-04-29T15:44:44.046Z,22.58
2019-04-29T15:47:12.193Z,22.35
2019-04-29T15:49:40.273Z,22.62
2019-04-29T15:52:08.357Z,22.95
2019-04-29T15:54:36.480Z,22.58
2019-04-29T15:57:09.641Z,22.85
2019-04-29T15:59:48.005Z,22.70
2019-04-29T16:02:06.244Z,21.10
2019-04-29T16:04:38.191Z,20.65
2019-04-29T16:07:37.235Z,20.20
2019-04-29T16:10:23.349Z,17.73
2019-04-29T16:12:54.458Z,13.55
2019-04-29T16:15:22.529Z,12.98
2019-04-29T16:17:50.693Z,11.57
2019-04-29T16:20:18.758Z,11.65
2019-04-29T16:22:47.965Z,12.13
2019-04-29T16:25:16.108Z,12.30
2019-04-29T16:27:48.895Z,12.43
2019-04-29T16:30:18.800Z,12.65
2019-04-29T16:32:43.944Z,12.93
2019-04-29T16:35:12.253Z,13.08
2019-04-29T16:37:40.431Z,13.38
2019-04-29T16:42:56.246Z,13.20
2019-04-29T16:45:32.379Z,12.60
2019-04-29T16:48:02.293Z,13.35
2019-04-29T16:50:31.460Z,13.78
2019-04-29T16:53:01.784Z,14.30
2019-04-29T16:55:36.005Z,14.67
2019-04-29T16:58:06.571Z,14.70
2019-04-29T17:00:37.986Z,14.27
2019-04-29T17:03:07.815Z,15.20
2019-04-29T17:05:37.149Z,15.75
2019-04-29T17:11:00.933Z,16.83
2019-04-29T17:13:30.139Z,18.80
2019-04-29T17:15:59.620Z,18.95
2019-04-29T17:18:28.826Z,19.42
2019-04-29T17:21:04.736Z,18.70
2019-04-29T17:23:28.934Z,18.10
2019-04-29T17:25:58.547Z,18.57
2019-04-29T17:28:40.307Z,19.00
2019-04-29T17:31:29.044Z,18.60
2019-04-29T17:34:13.094Z,19.05
2019-04-29T17:35:14.558Z,16.45
2019-04-29T17:36:43.683Z,20.27
2019-04-29T17:39:12.922Z,20.62
2019-04-29T17:41:42.169Z,20.70
2019-04-29T17:44:32.146Z,20.65
2019-04-29T17:47:13.893Z,21.40
2019-04-29T17:49:55.750Z,21.77
2019-04-29T17:52:27.508Z,22.50
2019-04-29T17:55:05.153Z,24.12
2019-04-29T17:57:43.028Z,24.80
2019-04-29T18:00:42.191Z,26.00
2019-04-29T18:03:22.296Z,25.72
2019-04-29T18:06:11.137Z,27.10
2019-04-29T18:09:08.681Z,25.55
2019-04-29T18:11:50.426Z,27.82
2019-04-29T18:14:10.155Z,28.92
2019-04-29T18:16:43.627Z,31.33
2019-04-29T18:19:19.209Z,32.90
2019-04-29T18:22:12.268Z,32.83
2019-04-29T18:24:55.929Z,35.55
2019-04-29T18:27:25.613Z,35.83
2019-04-29T18:29:55.183Z,36.88
2019-04-29T18:32:34.980Z,36.68
2019-04-29T18:34:56.001Z,35.73
2019-04-29T18:37:25.297Z,34.27
2019-04-29T18:39:57.848Z,35.58
2019-04-29T18:42:27.184Z,34.65
2019-04-29T18:45:00.159Z,35.85
2019-04-29T18:47:34.788Z,36.10
2019-04-29T18:49:58.908Z,37.15
2019-04-29T18:52:28.553Z,34.83
2019-04-29T18:54:58.014Z,35.63
2019-04-29T18:57:30.657Z,35.15
2019-04-29T18:59:58.606Z,34.63
2019-04-29T19:02:28.022Z,33.67
2019-04-29T19:05:19.186Z,33.83
2019-04-29T19:07:55.166Z,33.00
2019-04-29T19:10:19.608Z,31.93
2019-04-29T19:12:59.561Z,32.98
2019-04-29T19:15:20.092Z,31.80
2019-04-29T19:17:59.082Z,31.87
2019-04-29T19:20:20.349Z,31.55
2019-04-29T19:22:55.763Z,31.42
2019-04-29T19:25:21.224Z,34.20
2019-04-29T19:27:50.514Z,32.38
2019-04-29T19:30:21.213Z,34.75
2019-04-29T19:32:53.942Z,33.48
2019-04-29T19:35:25.288Z,33.73
2019-04-29T19:37:55.011Z,32.75
2019-04-29T19:40:25.845Z,33.10
2019-04-29T19:42:55.896Z,32.88
2019-04-29T19:45:25.431Z,34.23
2019-04-29T19:47:55.882Z,33.20
2019-04-29T19:50:25.791Z,33.05
2019-04-29T19:52:55.543Z,32.60
2019-04-29T19:55:25.251Z,32.73
2019-04-29T19:57:56.877Z,33.18
2019-04-29T20:00:31.795Z,31.73
2019-04-29T20:03:01.806Z,32.38
2019-04-29T20:05:42.603Z,31.30
2019-04-29T20:08:21.602Z,31.12
2019-04-29T20:10:48.087Z,30.53
2019-04-29T20:13:14.756Z,31.25
2019-04-29T20:15:57.242Z,31.47
2019-04-29T20:19:00.937Z,32.17
2019-04-29T20:21:29.345Z,31.93
2019-04-29T20:23:58.814Z,30.73
2019-04-29T20:26:29.617Z,30.15
2019-04-29T20:28:59.413Z,30.43
2019-04-29T20:31:28.788Z,30.45
2019-04-29T20:33:58.626Z,29.00
2019-04-29T20:36:40.968Z,30.05
2019-04-29T20:39:00.330Z,30.60
2019-04-29T20:41:40.215Z,29.20
2019-04-29T20:44:04.751Z,28.98
2019-04-29T20:46:43.202Z,29.47
2019-04-29T20:49:02.578Z,29.98
2019-04-29T20:51:47.861Z,28.12
2019-04-29T20:54:15.924Z,27.05
2019-04-29T20:56:40.445Z,28.27
2019-04-29T20:59:12.753Z,29.45
2019-04-29T21:01:44.664Z,28.83
2019-04-29T21:04:29.757Z,28.47
2019-04-29T21:06:58.955Z,29.32
2019-04-29T21:09:17.192Z,30.10
2019-04-29T21:12:05.461Z,31.37
2019-04-29T21:14:42.434Z,31.23
2019-04-29T21:17:12.729Z,32.45
2019-04-29T21:19:41.978Z,32.53
2019-04-29T21:24:28.200Z,33.05
2019-04-29T21:26:57.499Z,36.25
2019-04-29T21:29:26.858Z,37.73
2019-04-29T21:32:01.497Z,38.78
2019-04-29T21:34:37.002Z,37.08
2019-04-29T21:37:18.858Z,35.70
2019-04-29T21:39:55.020Z,38.48
2019-04-29T21:42:47.182Z,37.17
2019-04-29T21:45:17.465Z,37.55
2019-04-29T21:47:52.964Z,36.42
2019-04-29T21:50:18.288Z,36.93
2019-04-29T21:52:47.465Z,33.88
2019-04-29T21:55:20.628Z,35.88
2019-04-29T21:57:49.965Z,35.28
2019-04-29T22:00:23.942Z,34.00
2019-04-29T22:02:50.744Z,34.08
2019-04-29T22:05:19.930Z,37.00
2019-04-29T22:07:49.335Z,35.17
2019-04-29T22:10:19.960Z,35.38
2019-04-29T22:12:50.815Z,37.30
2019-04-29T22:15:32.161Z,37.13
2019-04-29T22:17:56.361Z,36.03
2019-04-29T22:20:23.082Z,39.75
2019-04-29T22:22:52.289Z,36.42
2019-04-29T22:25:21.577Z,37.28
2019-04-29T22:27:50.801Z,37.78
2019-04-29T22:30:20.293Z,38.30
2019-04-29T22:32:51.796Z,39.40
2019-04-29T22:35:20.931Z,42.43
2019-04-29T22:37:50.233Z,41.88
2019-04-29T22:40:19.466Z,42.88
2019-04-29T22:43:05.036Z,40.67
2019-04-29T22:45:33.842Z,43.63
2019-04-29T22:48:14.193Z,41.83
2019-04-29T22:50:33.588Z,45.00
2019-04-29T22:53:07.315Z,46.58
2019-04-29T22:55:37.167Z,49.03
2019-04-29T22:58:09.731Z,44.85
2019-04-29T23:00:38.464Z,45.35
2019-04-29T23:03:07.660Z,45.73
2019-04-29T23:05:37.922Z,46.45
2019-04-29T23:08:08.770Z,47.33
2019-04-29T23:10:38.036Z,49.48
2019-04-29T23:13:07.452Z,52.50
2019-04-29T23:15:36.730Z,50.37
2019-04-29T23:18:07.170Z,52.13
2019-04-29T23:20:59.482Z,53.25
2019-04-29T23:23:38.172Z,50.12
2019-04-29T23:26:08.599Z,55.30
2019-04-29T23:28:39.224Z,54.45
2019-04-29T23:31:08.400Z,58.25
2019-04-29T23:33:37.727Z,56.55
2019-04-29T23:36:09.575Z,55.67
2019-04-29T23:38:42.710Z,54.05
2019-04-29T23:41:12.882Z,56.48
2019-04-29T23:43:42.108Z,55.92
2019-04-29T23:46:11.277Z,54.42
2019-04-29T23:48:41.567Z,50.80
2019-04-29T23:51:10.783Z,53.65
2019-04-29T23:53:41.167Z,50.85
2019-04-29T23:56:10.451Z,49.53
2019-04-29T23:58:50.339Z,46.63
